Terminal Aerodrome Forecast
Issued by NWS Mobile, AL

Home | Current Version | Previous Version | Text Only | Print | Product List | Glossary On
Versions: 1 2 3 4 5 6 7 8 9 10 11 12 13 14 15 16 17 18 19 20 21 22 23 24 25 26 27 28
000
FTUS44 KMOB 041141
TAFMOB
TAF
KMOB 041141Z 0412/0512 20006KT 5SM BR VCTS SCT030CB SCT120 BKN200
     FM041300 23007KT P6SM VCTS SCT030CB SCT120 BKN200
      TEMPO 0419/0423 VRB20G30KT 4SM TSRA BKN030CB
     FM042300 19006KT P6SM VCTS SCT030CB BKN200=

USA.gov is the U.S. government's official web portal to all federal, state and local government web resources and services.